Time;durP1;ratioP1;P1;durP2;ratioP2;P2;SDS_P1;SDS_P2;PMS_P1;PMS_P2;Temp;Humidity;BMP_temperature;BMP_pressure;BME280_temperature;BME280_humidity;BME280_pressure;Samples;Min_cycle;Max_cycle;Signal;HPM_P1;HPM_P2
2022/12/31 00:02:12;;;;;;;5.88;4.28;;;11.20;99.90;;;;;;5015803;28;20772;-68
2022/12/31 00:04:40;;;;;;;5.30;4.22;;;11.20;99.90;;;;;;5027072;28;20197;-68
2022/12/31 00:07:07;;;;;;;4.70;4.18;;;11.20;99.90;;;;;;5012777;28;20217;-68
2022/12/31 00:09:33;;;;;;;6.20;3.67;;;11.20;99.90;;;;;;5017019;28;21620;-68
2022/12/31 00:12:00;;;;;;;5.32;3.47;;;11.20;99.90;;;;;;4999884;28;20340;-68
2022/12/31 00:14:27;;;;;;;8.93;4.07;;;11.20;99.90;;;;;;5015961;28;20208;-68
2022/12/31 00:16:54;;;;;;;6.25;4.18;;;11.30;99.90;;;;;;5010532;28;20770;-68
2022/12/31 00:19:21;;;;;;;5.20;4.55;;;11.30;99.90;;;;;;5026128;28;20288;-68
2022/12/31 00:21:49;;;;;;;7.00;4.10;;;11.30;99.90;;;;;;5030005;28;20206;-68
2022/12/31 00:24:15;;;;;;;7.18;4.47;;;11.30;99.90;;;;;;5029143;28;20194;-68
2022/12/31 00:26:42;;;;;;;4.68;4.28;;;11.30;99.90;;;;;;5002484;28;20224;-68
2022/12/31 00:29:10;;;;;;;6.63;4.40;;;11.40;99.90;;;;;;5015466;28;20237;-68
2022/12/31 00:31:38;;;;;;;7.28;4.20;;;11.40;99.90;;;;;;5031669;28;20248;-68
2022/12/31 00:34:06;;;;;;;6.50;4.70;;;11.30;99.90;;;;;;5013836;28;20206;-69
2022/12/31 00:36:35;;;;;;;7.65;5.28;;;11.30;99.90;;;;;;5024343;28;20208;-68
2022/12/31 00:39:05;;;;;;;5.65;4.75;;;11.30;99.90;;;;;;5011190;28;20209;-68
2022/12/31 00:41:32;;;;;;;5.53;4.75;;;11.40;99.90;;;;;;5029067;28;20202;-69
2022/12/31 00:44:00;;;;;;;9.15;5.20;;;11.40;99.90;;;;;;4986046;28;20213;-68
2022/12/31 00:46:27;;;;;;;6.13;4.75;;;11.40;99.90;;;;;;5031721;28;20201;-68
2022/12/31 00:48:54;;;;;;;5.07;4.40;;;11.40;99.90;;;;;;5024465;28;20206;-68
2022/12/31 00:51:26;;;;;;;7.00;4.78;;;11.40;99.90;;;;;;5022772;28;20233;-68
2022/12/31 00:53:52;;;;;;;5.75;4.50;;;11.40;99.90;;;;;;5018822;28;20292;-69
2022/12/31 00:56:23;;;;;;;6.47;5.05;;;11.30;99.90;;;;;;5029420;28;20548;-69
2022/12/31 00:58:50;;;;;;;5.03;4.53;;;11.40;99.90;;;;;;4994296;28;21180;-68
2022/12/31 01:01:19;;;;;;;5.65;4.72;;;11.40;99.90;;;;;;5008147;28;20202;-69
2022/12/31 01:03:47;;;;;;;7.25;3.67;;;11.40;99.90;;;;;;5019147;28;20205;-68
2022/12/31 01:06:14;;;;;;;4.20;3.78;;;11.50;99.90;;;;;;5030624;28;20257;-69
2022/12/31 01:08:41;;;;;;;5.25;3.83;;;11.50;99.90;;;;;;5030845;28;20802;-68
2022/12/31 01:11:20;;;;;;;5.70;4.20;;;11.50;99.90;;;;;;5010057;28;20252;-68
2022/12/31 01:13:50;;;;;;;6.30;4.20;;;11.40;99.90;;;;;;4997332;28;20592;-68
2022/12/31 01:16:19;;;;;;;5.70;4.30;;;11.40;99.90;;;;;;5003674;28;20217;-68
2022/12/31 01:18:46;;;;;;;5.50;4.25;;;11.40;99.90;;;;;;5020014;28;20205;-68
2022/12/31 01:21:13;;;;;;;8.43;4.38;;;11.50;99.90;;;;;;5017414;28;20205;-68
2022/12/31 01:23:40;;;;;;;4.72;4.32;;;11.40;99.90;;;;;;5030830;28;20197;-69
2022/12/31 01:26:09;;;;;;;3.83;3.40;;;11.50;99.90;;;;;;5020482;28;20205;-68
2022/12/31 01:28:37;;;;;;;4.82;3.30;;;11.40;99.90;;;;;;4987684;28;20206;-68
2022/12/31 01:31:06;;;;;;;3.38;3.08;;;11.50;99.90;;;;;;5016747;28;20225;-68
2022/12/31 01:33:33;;;;;;;3.03;2.67;;;11.50;99.90;;;;;;5016383;28;20219;-68
2022/12/31 01:36:06;;;;;;;4.88;2.47;;;11.60;99.90;;;;;;5033594;28;20197;-68
2022/12/31 01:38:34;;;;;;;2.80;2.53;;;11.60;99.90;;;;;;5026757;28;20204;-69
2022/12/31 01:41:01;;;;;;;2.85;2.50;;;11.60;99.90;;;;;;5017318;28;20216;-68
2022/12/31 01:43:44;;;;;;;3.65;2.67;;;11.60;99.90;;;;;;4985826;28;21211;-69
2022/12/31 01:46:16;;;;;;;7.72;3.80;;;11.60;99.90;;;;;;5022156;28;20201;-68
2022/12/31 01:48:43;;;;;;;8.63;4.53;;;11.70;99.90;;;;;;5016489;28;20218;-68
2022/12/31 01:51:10;;;;;;;7.68;4.95;;;11.60;99.90;;;;;;5029968;28;20235;-68
2022/12/31 01:53:37;;;;;;;6.15;4.80;;;11.60;99.90;;;;;;5030012;28;20205;-69
2022/12/31 01:56:06;;;;;;;4.82;4.10;;;11.70;99.90;;;;;;5030408;28;20218;-68
2022/12/31 01:58:38;;;;;;;5.47;3.45;;;11.70;99.90;;;;;;4983158;28;20892;-69
2022/12/31 02:01:06;;;;;;;4.53;2.97;;;11.70;99.90;;;;;;5025463;28;20217;-68
2022/12/31 02:03:35;;;;;;;3.92;3.05;;;11.70;99.90;;;;;;5019797;28;20205;-69
2022/12/31 02:06:06;;;;;;;4.95;3.40;;;11.80;99.90;;;;;;5013156;28;20205;-69
2022/12/31 02:08:35;;;;;;;4.10;3.67;;;11.80;99.90;;;;;;5028230;28;20201;-69
2022/12/31 02:11:01;;;;;;;4.15;3.65;;;11.80;99.90;;;;;;5017725;28;20228;-69
2022/12/31 02:13:28;;;;;;;4.68;3.47;;;11.70;99.90;;;;;;5013946;28;20202;-69
2022/12/31 02:16:09;;;;;;;4.60;3.58;;;11.80;99.90;;;;;;4993184;28;20209;-69
2022/12/31 02:18:45;;;;;;;4.55;4.00;;;11.70;99.90;;;;;;5020536;28;20212;-68
2022/12/31 02:21:39;;;;;;;5.65;4.40;;;11.70;99.90;;;;;;5021593;28;20574;-69
2022/12/31 02:24:43;;;;;;;4.28;3.88;;;11.70;99.90;;;;;;5025486;28;20198;-69
2022/12/31 02:27:15;;;;;;;6.25;3.85;;;11.80;99.90;;;;;;5016902;28;20209;-69
2022/12/31 02:30:09;;;;;;;7.50;4.10;;;11.80;99.90;;;;;;5015079;28;20204;-69
2022/12/31 02:32:47;;;;;;;7.13;3.60;;;11.80;99.90;;;;;;4999178;28;20221;-69
2022/12/31 02:35:20;;;;;;;4.63;3.53;;;11.80;99.90;;;;;;5026069;28;20213;-69
2022/12/31 02:37:52;;;;;;;5.00;3.13;;;11.70;99.90;;;;;;5030408;28;20202;-69
2022/12/31 02:40:20;;;;;;;3.60;2.83;;;11.80;99.90;;;;;;5025531;28;20197;-69
2022/12/31 02:42:47;;;;;;;3.53;2.92;;;11.80;99.90;;;;;;5021732;28;20209;-69
2022/12/31 02:45:19;;;;;;;3.40;2.58;;;11.80;99.90;;;;;;5009243;28;20205;-69
2022/12/31 02:47:54;;;;;;;3.92;2.95;;;11.80;99.90;;;;;;4978080;28;20209;-69
2022/12/31 02:50:36;;;;;;;7.68;3.28;;;11.80;99.90;;;;;;5013772;28;20196;-69
2022/12/31 02:53:18;;;;;;;3.53;2.92;;;11.70;99.90;;;;;;5031152;28;20205;-68
2022/12/31 02:55:50;;;;;;;8.60;3.30;;;11.80;99.90;;;;;;5028301;28;20194;-69
2022/12/31 03:02:12;;;;;;;3.50;3.20;;;11.80;99.90;;;;;;5022557;28;20226;-69
2022/12/31 03:04:30;;;;;;;4.00;2.97;;;11.80;99.90;;;;;;4986105;28;20216;-69
2022/12/31 03:06:52;;;;;;;3.83;2.90;;;11.80;99.90;;;;;;5020452;28;20232;-69
2022/12/31 03:09:19;;;;;;;3.72;2.60;;;11.80;99.90;;;;;;5025527;28;20220;-69
2022/12/31 03:14:30;;;;;;;3.13;2.90;;;11.70;99.90;;;;;;5016122;28;20232;-69
2022/12/31 03:16:58;;;;;;;5.05;2.72;;;11.70;99.90;;;;;;5016330;28;20217;-69
2022/12/31 03:22:27;;;;;;;4.28;3.10;;;11.70;99.90;;;;;;4991895;28;20197;-69
2022/12/31 03:27:40;;;;;;;5.75;4.10;;;11.70;99.90;;;;;;5024811;28;20201;-69
2022/12/31 03:30:08;;;;;;;4.53;3.03;;;11.70;99.90;;;;;;5022382;28;20212;-69
2022/12/31 03:32:36;;;;;;;4.10;3.65;;;11.70;99.90;;;;;;5010582;28;20225;-69
2022/12/31 03:35:03;;;;;;;3.45;2.80;;;11.70;99.90;;;;;;5004427;28;20205;-69
2022/12/31 03:37:30;;;;;;;4.10;2.90;;;11.70;99.90;;;;;;5014291;28;20587;-69
2022/12/31 03:39:57;;;;;;;2.80;2.58;;;11.80;99.90;;;;;;5016074;28;20206;-69
2022/12/31 03:42:24;;;;;;;4.35;3.38;;;11.80;99.90;;;;;;5026049;28;20198;-68
2022/12/31 03:44:50;;;;;;;3.05;2.75;;;11.70;99.90;;;;;;5009409;28;20205;-69
2022/12/31 03:47:17;;;;;;;3.20;2.90;;;11.60;99.90;;;;;;5017401;28;20216;-69
2022/12/31 03:49:45;;;;;;;3.67;3.17;;;11.60;99.90;;;;;;4994238;28;20639;-69
2022/12/31 03:52:12;;;;;;;4.22;3.30;;;11.60;99.90;;;;;;5013021;28;20252;-69
2022/12/31 03:54:39;;;;;;;3.97;3.58;;;11.60;99.90;;;;;;5013900;28;20201;-69
2022/12/31 03:57:06;;;;;;;4.00;3.40;;;11.60;99.90;;;;;;5014946;28;20773;-69
2022/12/31 03:59:33;;;;;;;3.95;2.92;;;11.60;99.90;;;;;;5028319;28;20205;-69
2022/12/31 04:01:59;;;;;;;3.10;2.80;;;11.70;99.90;;;;;;5024144;28;20931;-69
2022/12/31 04:04:26;;;;;;;3.53;2.67;;;11.70;99.90;;;;;;5029180;28;20215;-69
2022/12/31 04:06:54;;;;;;;3.70;2.63;;;11.70;99.90;;;;;;4982997;28;20232;-69
2022/12/31 04:09:21;;;;;;;2.65;2.20;;;11.70;99.90;;;;;;5010503;28;20430;-69
2022/12/31 04:11:48;;;;;;;2.40;2.10;;;11.60;99.90;;;;;;5012661;28;20620;-69
2022/12/31 04:14:16;;;;;;;2.65;2.10;;;11.60;99.90;;;;;;5016275;28;20193;-69
2022/12/31 04:16:42;;;;;;;2.55;2.15;;;11.60;99.90;;;;;;5027649;28;20263;-69
2022/12/31 04:19:09;;;;;;;3.20;2.13;;;11.60;99.90;;;;;;5019018;28;20209;-70
2022/12/31 04:21:36;;;;;;;2.10;1.90;;;11.60;99.90;;;;;;4983310;28;20211;-69
2022/12/31 04:24:05;;;;;;;2.30;1.75;;;11.60;99.90;;;;;;5028039;28;20233;-69
2022/12/31 04:26:32;;;;;;;4.40;2.33;;;11.60;99.90;;;;;;5009045;28;20705;-69
2022/12/31 04:28:59;;;;;;;2.00;1.65;;;11.60;99.90;;;;;;5026012;28;20292;-69
2022/12/31 04:31:27;;;;;;;5.07;2.25;;;11.60;99.90;;;;;;5023998;28;22309;-69
2022/12/31 04:33:53;;;;;;;3.25;2.05;;;11.60;99.90;;;;;;5020892;28;20205;-69
2022/12/31 04:36:20;;;;;;;2.15;1.80;;;11.50;99.90;;;;;;5005897;28;20671;-69
2022/12/31 04:38:47;;;;;;;3.80;1.60;;;11.50;99.90;;;;;;5025708;28;20348;-69
2022/12/31 04:41:19;;;;;;;1.73;1.63;;;11.60;99.90;;;;;;5020380;28;21397;-69
2022/12/31 04:43:48;;;;;;;2.22;1.92;;;11.50;99.90;;;;;;5014826;28;20204;-69
2022/12/31 04:46:16;;;;;;;1.30;1.20;;;11.50;99.90;;;;;;5027521;28;20694;-69
2022/12/31 04:48:43;;;;;;;2.17;1.58;;;11.50;99.90;;;;;;5019064;28;20212;-69
2022/12/31 04:51:10;;;;;;;1.70;1.60;;;11.50;99.90;;;;;;5033584;28;20571;-69
2022/12/31 04:53:37;;;;;;;2.85;1.60;;;11.50;99.90;;;;;;5001578;28;20252;-69
2022/12/31 04:56:05;;;;;;;1.20;1.08;;;11.50;99.90;;;;;;5018542;28;20209;-69
2022/12/31 04:58:34;;;;;;;1.30;1.20;;;11.60;99.90;;;;;;5015797;28;21300;-69
2022/12/31 05:01:01;;;;;;;2.35;1.13;;;11.50;99.90;;;;;;5027832;28;20202;-68
2022/12/31 05:03:28;;;;;;;1.52;1.10;;;11.40;99.90;;;;;;5021740;28;20566;-68
2022/12/31 05:06:01;;;;;;;1.65;1.38;;;11.40;99.90;;;;;;5032120;28;21405;-69
2022/12/31 05:08:27;;;;;;;4.13;1.10;;;11.40;99.90;;;;;;5001601;28;20230;-69
2022/12/31 05:10:55;;;;;;;1.08;0.95;;;11.40;99.90;;;;;;5014606;28;21286;-69
2022/12/31 05:13:22;;;;;;;1.30;1.20;;;11.30;99.90;;;;;;5024547;28;20225;-69
2022/12/31 05:15:51;;;;;;;1.25;1.15;;;11.30;99.90;;;;;;5017441;28;20197;-69
2022/12/31 05:18:18;;;;;;;1.25;1.15;;;11.30;99.90;;;;;;5018181;28;22982;-69
2022/12/31 05:20:45;;;;;;;1.20;1.10;;;11.30;99.90;;;;;;5032613;28;20878;-69
2022/12/31 05:23:13;;;;;;;1.50;1.25;;;11.30;99.90;;;;;;5000110;28;20364;-69
2022/12/31 05:25:40;;;;;;;1.20;1.10;;;11.30;99.90;;;;;;5036516;28;20202;-69
2022/12/31 05:28:07;;;;;;;1.13;1.00;;;11.30;99.90;;;;;;5023199;28;20251;-69
2022/12/31 05:30:33;;;;;;;1.10;1.00;;;11.30;99.90;;;;;;5020753;28;20217;-69
2022/12/31 05:33:01;;;;;;;2.15;1.08;;;11.20;99.90;;;;;;5030566;28;20236;-69
2022/12/31 05:35:28;;;;;;;1.58;1.20;;;11.20;99.90;;;;;;5019624;28;20216;-69
2022/12/31 05:37:55;;;;;;;2.05;0.98;;;11.30;99.90;;;;;;5033558;28;20702;-69
2022/12/31 05:40:22;;;;;;;1.40;1.10;;;11.30;99.90;;;;;;4999246;28;20224;-69
2022/12/31 05:42:49;;;;;;;2.38;1.02;;;11.20;99.90;;;;;;5017100;28;20681;-69
2022/12/31 05:45:17;;;;;;;1.60;1.08;;;11.20;99.90;;;;;;5019195;28;20197;-69
2022/12/31 05:47:44;;;;;;;1.42;1.02;;;11.20;99.90;;;;;;5029848;28;20258;-69
2022/12/31 05:50:15;;;;;;;1.52;1.00;;;11.20;99.90;;;;;;5020796;28;20710;-69
2022/12/31 05:52:43;;;;;;;1.45;0.85;;;11.20;99.90;;;;;;5035360;28;20236;-69
2022/12/31 05:55:10;;;;;;;1.05;0.88;;;11.20;99.90;;;;;;5003069;28;20231;-69
2022/12/31 05:57:36;;;;;;;2.25;0.90;;;11.20;99.90;;;;;;5018828;28;20270;-69
2022/12/31 06:00:04;;;;;;;1.20;1.05;;;11.20;99.90;;;;;;5021886;28;20223;-69
2022/12/31 06:02:31;;;;;;;0.82;0.80;;;11.20;99.90;;;;;;5029071;28;20571;-69
2022/12/31 06:04:58;;;;;;;2.38;1.00;;;11.20;99.90;;;;;;5032091;28;20209;-69
2022/12/31 06:07:28;;;;;;;0.88;0.80;;;11.10;99.90;;;;;;5019329;28;20201;-69
2022/12/31 06:09:55;;;;;;;2.35;0.90;;;11.10;99.90;;;;;;4998854;28;20229;-69
2022/12/31 06:12:22;;;;;;;1.33;1.00;;;11.20;99.90;;;;;;5025004;28;20225;-69
2022/12/31 06:14:49;;;;;;;1.02;0.85;;;11.20;99.90;;;;;;5019437;28;20205;-69
2022/12/31 06:17:15;;;;;;;0.77;0.77;;;11.10;99.90;;;;;;5029482;28;20213;-69
2022/12/31 06:19:42;;;;;;;0.80;0.77;;;10.90;99.90;;;;;;5031299;28;20197;-69
2022/12/31 06:22:09;;;;;;;1.48;0.90;;;11.10;99.90;;;;;;5020012;28;20214;-68
2022/12/31 06:24:37;;;;;;;1.83;0.70;;;11.20;99.90;;;;;;5025593;28;20210;-69
2022/12/31 06:27:04;;;;;;;0.70;0.70;;;11.20;99.90;;;;;;5000534;28;20208;-69
2022/12/31 06:29:31;;;;;;;1.70;0.80;;;11.10;99.90;;;;;;5008780;28;20201;-69
2022/12/31 06:31:57;;;;;;;0.77;0.77;;;11.20;99.90;;;;;;5033483;28;20232;-69
2022/12/31 06:34:24;;;;;;;1.13;1.00;;;11.20;99.90;;;;;;5029748;28;20233;-69
2022/12/31 06:36:51;;;;;;;1.77;1.10;;;11.10;99.90;;;;;;5031231;28;20194;-69
2022/12/31 06:39:18;;;;;;;2.90;1.00;;;11.20;99.90;;;;;;5012729;28;20206;-69
2022/12/31 06:41:46;;;;;;;1.05;0.95;;;11.20;99.90;;;;;;5003631;28;21343;-69
2022/12/31 06:44:13;;;;;;;1.27;1.17;;;11.20;99.90;;;;;;5021220;28;20201;-69
2022/12/31 06:46:40;;;;;;;1.50;1.20;;;11.00;99.90;;;;;;5017079;28;20734;-69
2022/12/31 06:49:07;;;;;;;1.20;1.10;;;11.20;99.90;;;;;;5033508;28;20205;-69
2022/12/31 06:51:34;;;;;;;2.42;1.25;;;11.20;99.90;;;;;;5028533;28;20204;-69
2022/12/31 06:54:00;;;;;;;1.33;1.23;;;11.20;99.90;;;;;;5021204;28;20233;-69
2022/12/31 06:56:29;;;;;;;3.63;1.15;;;11.20;99.90;;;;;;5030312;28;20194;-69
2022/12/31 06:58:57;;;;;;;1.23;1.08;;;11.20;99.90;;;;;;4993222;28;20225;-69
2022/12/31 07:01:43;;;;;;;5.43;0.90;;;11.20;99.90;;;;;;5001995;28;20213;-69
2022/12/31 07:04:42;;;;;;;0.70;0.70;;;11.20;99.90;;;;;;5025960;28;20205;-69
2022/12/31 07:07:16;;;;;;;1.13;0.77;;;11.20;99.90;;;;;;5019724;28;20197;-70
2022/12/31 07:09:55;;;;;;;1.30;0.90;;;11.20;99.90;;;;;;5012688;28;20220;-69
2022/12/31 07:12:35;;;;;;;1.08;0.82;;;11.20;99.90;;;;;;5030130;28;20221;-69
2022/12/31 07:15:06;;;;;;;0.93;0.80;;;11.20;99.90;;;;;;5003379;28;20197;-69
2022/12/31 07:17:41;;;;;;;0.98;0.88;;;11.20;99.90;;;;;;5029391;28;20203;-69
2022/12/31 07:20:11;;;;;;;0.95;0.95;;;11.20;99.90;;;;;;5029242;28;20204;-69
2022/12/31 07:22:39;;;;;;;1.45;0.80;;;11.20;99.90;;;;;;5022762;28;20248;-69
2022/12/31 07:25:07;;;;;;;0.80;0.80;;;11.10;99.90;;;;;;5005141;28;20368;-69
2022/12/31 07:28:00;;;;;;;0.98;0.90;;;11.10;99.90;;;;;;5006436;28;20232;-69
2022/12/31 07:30:39;;;;;;;0.80;0.80;;;11.10;99.90;;;;;;5012765;28;20240;-69
2022/12/31 07:33:21;;;;;;;0.90;0.85;;;11.20;99.90;;;;;;5025118;28;20447;-69
2022/12/31 07:35:57;;;;;;;0.70;0.70;;;11.20;99.90;;;;;;5023221;28;20197;-69
2022/12/31 07:38:33;;;;;;;1.98;0.90;;;11.10;99.90;;;;;;5013215;28;20208;-69
2022/12/31 07:41:09;;;;;;;0.82;0.80;;;11.10;99.90;;;;;;5012434;28;20204;-69
2022/12/31 07:43:45;;;;;;;0.85;0.80;;;11.10;99.90;;;;;;4979435;28;20804;-69
2022/12/31 07:46:19;;;;;;;2.60;0.70;;;11.10;99.90;;;;;;5001027;28;20235;-69
2022/12/31 07:48:46;;;;;;;0.52;0.45;;;11.00;99.90;;;;;;5023740;28;21651;-69
2022/12/31 07:51:14;;;;;;;1.63;0.65;;;11.00;99.90;;;;;;5026313;28;20656;-69
2022/12/31 07:53:40;;;;;;;2.25;0.60;;;11.00;99.90;;;;;;5009689;28;20236;-69
2022/12/31 07:56:09;;;;;;;2.33;0.60;;;11.00;99.90;;;;;;4999632;28;21628;-69
2022/12/31 07:58:55;;;;;;;1.10;0.63;;;11.00;99.90;;;;;;4990136;28;20257;-69
2022/12/31 08:01:33;;;;;;;0.90;0.77;;;11.00;99.90;;;;;;4974850;28;20701;-69
2022/12/31 08:04:05;;;;;;;0.45;0.40;;;11.10;99.90;;;;;;5025366;28;20216;-69
2022/12/31 08:06:39;;;;;;;1.08;0.82;;;11.00;99.90;;;;;;4990499;28;21173;-69
2022/12/31 08:09:17;;;;;;;1.58;0.60;;;11.00;99.90;;;;;;5007316;28;20242;-69
2022/12/31 08:11:51;;;;;;;1.05;0.85;;;11.00;99.90;;;;;;5004931;28;21008;-69
2022/12/31 08:14:18;;;;;;;1.95;0.98;;;11.00;99.90;;;;;;4974454;28;20364;-69
2022/12/31 08:16:47;;;;;;;1.42;1.00;;;11.00;99.90;;;;;;5011612;28;20325;-69
2022/12/31 08:19:23;;;;;;;1.40;0.82;;;11.00;99.90;;;;;;5020643;28;20198;-69
2022/12/31 08:22:06;;;;;;;1.10;1.00;;;11.00;99.90;;;;;;5016631;28;20262;-69
2022/12/31 08:24:40;;;;;;;0.70;0.70;;;11.00;99.90;;;;;;5012271;28;20361;-69
2022/12/31 08:27:15;;;;;;;1.17;1.08;;;11.00;99.90;;;;;;5010130;28;20192;-69
2022/12/31 08:29:49;;;;;;;2.08;1.50;;;11.00;99.90;;;;;;5029197;28;20887;-69
2022/12/31 08:32:23;;;;;;;1.77;1.67;;;11.00;99.90;;;;;;4980674;28;20205;-69
2022/12/31 08:34:58;;;;;;;3.58;2.20;;;11.10;99.90;;;;;;5034371;28;20202;-69
2022/12/31 08:37:35;;;;;;;2.40;2.20;;;11.10;99.90;;;;;;5014058;28;21353;-69
2022/12/31 08:40:19;;;;;;;3.05;2.10;;;11.10;99.90;;;;;;4997723;28;20208;-69
2022/12/31 08:43:07;;;;;;;3.00;2.70;;;11.20;99.90;;;;;;5009251;28;20213;-69
2022/12/31 08:45:38;;;;;;;4.45;2.72;;;11.20;99.90;;;;;;4988816;28;21282;-69
2022/12/31 08:48:15;;;;;;;3.15;2.88;;;11.30;99.90;;;;;;5013835;28;20217;-69
2022/12/31 08:50:43;;;;;;;2.97;2.67;;;11.30;99.90;;;;;;5029196;28;20231;-69
2022/12/31 08:53:10;;;;;;;4.85;3.05;;;11.30;99.90;;;;;;4995292;28;20312;-69
2022/12/31 08:55:37;;;;;;;3.50;2.92;;;11.40;99.90;;;;;;5016877;28;20206;-69
2022/12/31 08:58:17;;;;;;;3.15;2.85;;;11.40;99.90;;;;;;5007514;28;20719;-69
2022/12/31 09:00:46;;;;;;;5.22;3.42;;;11.40;99.90;;;;;;5028634;28;20670;-69
2022/12/31 09:03:45;;;;;;;3.60;3.25;;;11.40;99.90;;;;;;4956078;28;20213;-69
2022/12/31 09:06:19;;;;;;;3.35;2.63;;;11.40;99.90;;;;;;4979570;28;20205;-69
2022/12/31 09:08:51;;;;;;;3.85;2.97;;;11.40;99.90;;;;;;4981608;28;20229;-69
2022/12/31 09:11:23;;;;;;;4.28;3.42;;;11.40;99.90;;;;;;5007477;28;20876;-69
2022/12/31 09:14:06;;;;;;;5.68;3.28;;;11.50;99.90;;;;;;4990508;28;20233;-70
2022/12/31 09:16:43;;;;;;;8.07;3.38;;;11.50;99.90;;;;;;4998079;28;20198;-69
2022/12/31 09:19:11;;;;;;;3.38;3.05;;;11.50;99.90;;;;;;5018232;28;20197;-69
2022/12/31 09:21:40;;;;;;;3.78;3.28;;;11.60;99.90;;;;;;5020788;28;20202;-69
2022/12/31 09:24:07;;;;;;;4.30;2.85;;;11.50;99.90;;;;;;5005917;28;20958;-69
2022/12/31 09:26:43;;;;;;;4.63;3.55;;;11.60;99.90;;;;;;5016411;28;20213;-69
2022/12/31 09:29:19;;;;;;;3.35;3.05;;;11.60;99.90;;;;;;5021841;28;20220;-69
2022/12/31 09:31:53;;;;;;;3.47;3.17;;;11.50;99.90;;;;;;5007868;28;20397;-69
2022/12/31 09:34:28;;;;;;;3.80;3.40;;;11.60;99.90;;;;;;4992699;28;20244;-70
2022/12/31 09:36:59;;;;;;;3.28;2.97;;;11.70;99.90;;;;;;5006903;28;20611;-69
2022/12/31 09:39:34;;;;;;;3.47;2.53;;;11.60;99.90;;;;;;5006357;28;20213;-69
2022/12/31 09:42:42;;;;;;;2.65;2.45;;;11.70;99.90;;;;;;5021065;28;20418;-69
2022/12/31 09:45:42;;;;;;;2.97;2.58;;;11.70;99.90;;;;;;4963154;28;20224;-70
2022/12/31 09:48:54;;;;;;;2.90;2.60;;;11.80;99.90;;;;;;5019370;28;20197;-69
2022/12/31 09:51:29;;;;;;;2.97;2.40;;;11.80;99.90;;;;;;5011910;28;20206;-70
2022/12/31 09:54:23;;;;;;;2.47;2.28;;;11.70;99.90;;;;;;5011412;28;20232;-69
2022/12/31 09:57:04;;;;;;;2.47;2.17;;;11.70;99.90;;;;;;4975009;28;20271;-69
2022/12/31 09:59:40;;;;;;;2.80;2.40;;;11.80;99.90;;;;;;5011788;28;20672;-69
2022/12/31 10:02:20;;;;;;;2.55;2.08;;;11.90;99.90;;;;;;4999786;28;20225;-69
2022/12/31 10:05:03;;;;;;;2.88;2.22;;;11.90;99.90;;;;;;4990061;28;20233;-69
2022/12/31 10:07:50;;;;;;;2.30;2.05;;;11.90;99.90;;;;;;5006109;28;20213;-69
2022/12/31 10:10:22;;;;;;;2.35;2.15;;;12.00;99.90;;;;;;4987538;28;20554;-69
2022/12/31 10:13:08;;;;;;;3.17;2.38;;;11.90;99.90;;;;;;4998083;28;20217;-70
2022/12/31 10:16:13;;;;;;;2.42;2.17;;;12.00;99.90;;;;;;4987230;28;21836;-70
2022/12/31 10:19:07;;;;;;;2.10;1.90;;;12.00;99.90;;;;;;4983135;28;20774;-69
2022/12/31 10:21:48;;;;;;;4.35;1.85;;;12.00;99.90;;;;;;4986978;28;20211;-69
2022/12/31 10:24:43;;;;;;;2.55;1.83;;;12.00;99.90;;;;;;4994122;28;20360;-70
2022/12/31 10:27:37;;;;;;;3.05;1.77;;;12.20;99.90;;;;;;5003027;28;20232;-70
2022/12/31 10:30:13;;;;;;;2.00;1.80;;;12.20;99.90;;;;;;5010902;28;20236;-69
2022/12/31 10:32:44;;;;;;;2.03;1.83;;;12.30;99.90;;;;;;4999948;28;20320;-70
2022/12/31 10:35:25;;;;;;;1.63;1.40;;;12.30;99.90;;;;;;5016461;28;20341;-69
2022/12/31 10:38:04;;;;;;;1.70;1.50;;;12.50;99.90;;;;;;4985656;28;20317;-70
2022/12/31 10:40:51;;;;;;;2.00;1.73;;;12.50;99.90;;;;;;4996771;28;20233;-69
2022/12/31 10:43:41;;;;;;;2.40;1.90;;;12.50;99.90;;;;;;5010121;28;20231;-69
2022/12/31 10:46:47;;;;;;;1.42;1.33;;;12.50;99.90;;;;;;5003513;28;20228;-69
2022/12/31 10:49:50;;;;;;;1.30;1.20;;;12.60;99.90;;;;;;4987506;28;20581;-70
2022/12/31 10:53:01;;;;;;;3.50;1.05;;;12.70;99.90;;;;;;4990915;28;20209;-69
2022/12/31 10:56:08;;;;;;;0.80;0.80;;;12.80;99.90;;;;;;4996923;28;20299;-70
2022/12/31 10:59:14;;;;;;;1.05;0.95;;;12.80;99.90;;;;;;5006139;28;20244;-70
2022/12/31 11:01:48;;;;;;;1.10;0.90;;;12.80;99.90;;;;;;4941624;28;20229;-70
2022/12/31 11:04:55;;;;;;;1.08;0.70;;;12.80;99.90;;;;;;5015833;28;20270;-70
2022/12/31 11:07:42;;;;;;;1.00;0.90;;;13.00;99.90;;;;;;4973170;28;20499;-70
2022/12/31 11:10:41;;;;;;;1.05;0.95;;;12.90;99.90;;;;;;5007303;28;20229;-70
2022/12/31 11:13:34;;;;;;;0.70;0.70;;;13.00;99.90;;;;;;5003186;28;20208;-70
2022/12/31 11:16:19;;;;;;;0.85;0.70;;;13.10;99.90;;;;;;4996981;28;20209;-70
2022/12/31 11:18:54;;;;;;;0.68;0.68;;;13.10;99.90;;;;;;4991782;28;20201;-70
2022/12/31 11:21:50;;;;;;;1.13;0.50;;;13.10;99.90;;;;;;5022751;28;20383;-70
2022/12/31 11:24:31;;;;;;;0.82;0.47;;;13.10;99.90;;;;;;4987726;28;20213;-69
2022/12/31 11:27:13;;;;;;;2.05;0.50;;;13.10;99.90;;;;;;4995137;28;20733;-70
2022/12/31 11:30:03;;;;;;;0.38;0.38;;;13.20;99.90;;;;;;5009444;28;20260;-70
2022/12/31 11:32:45;;;;;;;3.15;0.70;;;13.20;99.90;;;;;;4989434;28;20209;-70
2022/12/31 11:35:37;;;;;;;2.25;0.75;;;13.20;99.90;;;;;;5005380;28;20267;-70
2022/12/31 11:38:17;;;;;;;1.02;0.73;;;13.30;99.90;;;;;;4999043;28;20300;-69
2022/12/31 11:40:54;;;;;;;2.10;0.60;;;13.30;99.90;;;;;;5003189;28;20238;-70
2022/12/31 11:43:26;;;;;;;0.40;0.40;;;13.20;99.90;;;;;;4996559;28;20626;-70
2022/12/31 11:46:17;;;;;;;0.98;0.52;;;13.20;99.90;;;;;;4998062;28;20239;-69
2022/12/31 11:48:54;;;;;;;3.00;0.73;;;13.20;99.90;;;;;;4994467;28;20204;-69
2022/12/31 11:51:44;;;;;;;0.65;0.52;;;13.30;99.90;;;;;;5011451;28;20593;-69
2022/12/31 11:54:41;;;;;;;1.65;0.68;;;13.20;99.90;;;;;;4991053;28;20598;-69
2022/12/31 11:57:18;;;;;;;1.00;0.82;;;13.30;99.90;;;;;;4997653;28;20809;-70
2022/12/31 11:59:46;;;;;;;0.43;0.40;;;13.30;99.90;;;;;;4987614;28;20209;-69
2022/12/31 12:02:25;;;;;;;1.27;0.50;;;13.30;99.90;;;;;;4988596;28;20205;-69
2022/12/31 12:04:54;;;;;;;0.73;0.73;;;13.20;99.90;;;;;;4996997;28;20263;-69
2022/12/31 12:07:23;;;;;;;0.70;0.65;;;13.30;99.90;;;;;;5003360;28;20220;-69
2022/12/31 12:09:52;;;;;;;2.45;0.80;;;13.40;99.90;;;;;;4975476;28;20387;-69
2022/12/31 12:12:19;;;;;;;0.88;0.52;;;13.40;99.90;;;;;;4993957;28;20217;-69
2022/12/31 12:14:52;;;;;;;0.63;0.63;;;13.40;99.90;;;;;;4995920;28;20248;-69
2022/12/31 12:17:30;;;;;;;0.73;0.40;;;13.40;99.90;;;;;;4999297;28;20791;-69
2022/12/31 12:20:01;;;;;;;1.08;0.80;;;13.40;99.90;;;;;;5004622;28;20331;-69
2022/12/31 12:22:29;;;;;;;1.73;0.93;;;13.50;99.90;;;;;;5022223;28;20240;-68
2022/12/31 12:24:58;;;;;;;2.17;0.70;;;13.50;99.90;;;;;;4979881;28;20694;-68
2022/12/31 12:27:28;;;;;;;0.63;0.63;;;13.40;99.90;;;;;;5010579;28;20217;-69
2022/12/31 12:29:55;;;;;;;0.65;0.65;;;13.40;99.90;;;;;;4998521;28;20201;-69
2022/12/31 12:32:25;;;;;;;0.68;0.63;;;13.50;99.90;;;;;;5016320;28;20290;-69
2022/12/31 12:34:52;;;;;;;1.45;0.77;;;13.40;99.90;;;;;;4987790;28;21470;-69
2022/12/31 12:37:28;;;;;;;2.20;0.75;;;13.40;99.90;;;;;;5020583;28;20207;-69
2022/12/31 12:40:00;;;;;;;0.70;0.70;;;13.40;99.90;;;;;;5014859;28;20202;-70
2022/12/31 12:42:28;;;;;;;1.88;0.85;;;13.40;99.90;;;;;;5003583;28;20778;-69
2022/12/31 12:45:02;;;;;;;0.80;0.50;;;13.50;99.90;;;;;;5000057;28;21263;-69
2022/12/31 12:47:31;;;;;;;1.13;0.80;;;13.50;99.90;;;;;;5019508;28;20225;-69
2022/12/31 12:49:59;;;;;;;0.65;0.65;;;13.40;99.90;;;;;;4992468;28;20205;-69
2022/12/31 12:52:49;;;;;;;1.90;0.80;;;13.50;99.90;;;;;;5020336;28;20200;-69
2022/12/31 12:55:25;;;;;;;1.30;0.88;;;13.40;99.90;;;;;;5025102;28;20228;-69
2022/12/31 12:58:04;;;;;;;2.60;0.75;;;13.40;99.90;;;;;;4979118;28;20225;-69
2022/12/31 13:00:38;;;;;;;1.17;0.90;;;13.50;99.90;;;;;;4999222;28;20236;-70
2022/12/31 13:03:27;;;;;;;0.85;0.85;;;13.60;99.90;;;;;;5002657;28;20205;-70
2022/12/31 13:06:13;;;;;;;0.88;0.80;;;13.50;99.90;;;;;;5000808;28;20233;-70
2022/12/31 13:08:55;;;;;;;1.15;0.82;;;13.50;99.90;;;;;;5022311;28;20220;-69
2022/12/31 13:11:37;;;;;;;0.98;0.63;;;13.60;99.90;;;;;;4988571;28;20327;-70
2022/12/31 13:14:14;;;;;;;1.20;1.10;;;13.60;99.90;;;;;;5008442;28;20228;-70
2022/12/31 13:16:46;;;;;;;1.40;1.30;;;13.50;99.90;;;;;;5005700;28;20232;-70
2022/12/31 13:19:22;;;;;;;1.63;1.52;;;13.60;99.90;;;;;;5012488;28;20226;-69
2022/12/31 13:21:55;;;;;;;1.38;1.13;;;13.50;99.90;;;;;;5005780;28;20221;-70
2022/12/31 13:24:31;;;;;;;1.52;1.30;;;13.60;99.90;;;;;;5018457;28;20233;-70
2022/12/31 13:27:06;;;;;;;1.50;1.40;;;13.60;99.90;;;;;;4988741;28;20686;-70
2022/12/31 13:29:34;;;;;;;1.30;1.20;;;13.60;99.90;;;;;;5013956;28;20193;-70
2022/12/31 13:32:05;;;;;;;2.05;1.48;;;13.60;99.90;;;;;;5004793;28;20688;-71
2022/12/31 13:34:37;;;;;;;4.63;1.20;;;13.70;99.90;;;;;;5007326;28;20233;-70